WetterOnline ( https://www.wetteronline.de )

Wetter aktuell Rechtsupweg

Aktuelles Wetter: Norderney (16m)

6-stündlich | Neueste Meldungen
Ortszeit Temperatur Wetter
Mo, 09.12. 19:00 7.7° C fast wolkenlos
Mo, 09.12. 13:00 6.5° C leichter Regen
Mo, 09.12. 7:00 6.6° C bewölkt
Mo, 09.12. 1:00 6.8° C leicht bewölkt
So, 08.12. 19:00 8.0° C leicht bewölkt
So, 08.12. 13:00 9.5° C bewölkt
So, 08.12. 7:00 8.2° C leichter Regen
So, 08.12. 1:00 7.8° C bewölkt
Ortszeit Temperatur Wetter
Mo, 09.12. 21:10 6.4° C wolkig
Mo, 09.12. 21:00 6.4° C leicht bewölkt
Mo, 09.12. 20:50 6.4° C leicht bewölkt
Mo, 09.12. 20:40 7.3° C fast wolkenlos
Mo, 09.12. 20:30 7.1° C wolkenlos
Mo, 09.12. 20:20 7.1° C wolkenlos
Mo, 09.12. 20:00 7.3° C leicht bewölkt
Mo, 09.12. 19:30 6.6° C wolkig
Mo, 09.12. 19:00 7.7° C fast wolkenlos
Mo, 09.12. 18:30 7.0° C leicht bewölkt
Mo, 09.12. 18:00 7.5° C leicht bewölkt
Ortszeit Relative Feuchte Sichtweite
Mo, 09.12. 19:00 65% 10 km
Mo, 09.12. 13:00 95% 7 km
Mo, 09.12. 7:00 87% 20 km
Mo, 09.12. 1:00 83% 23 km
So, 08.12. 19:00 83% 16 km
So, 08.12. 13:00 87% 21 km
So, 08.12. 7:00 87% 8 km
So, 08.12. 1:00 86% 30 km
Ortszeit Relative Feuchte Sichtweite
Mo, 09.12. 21:10 76% -
Mo, 09.12. 21:00 74% 8 km
Mo, 09.12. 20:50 74% -
Mo, 09.12. 20:40 66% -
Mo, 09.12. 20:30 63% 10 km
Mo, 09.12. 20:20 63% -
Mo, 09.12. 20:00 67% 8 km
Mo, 09.12. 19:30 67% 13 km
Mo, 09.12. 19:00 65% 10 km
Mo, 09.12. 18:30 68% 11 km
Mo, 09.12. 18:00 73% 10 km
Ortszeit Niederschlagsmenge Niederschlagsart
Mo, 09.12. 19:00 3 l/m2 in 12 Std. Regen
Mo, 09.12. 13:00 1 l/m2 in 6 Std. Regen
Mo, 09.12. 7:00 0.2 l/m2 in 12 Std. Regen
Mo, 09.12. 1:00 0.2 l/m2 in 6 Std. Regen
So, 08.12. 19:00 2 l/m2 in 12 Std. Regen
So, 08.12. 13:00 2 l/m2 in 6 Std. Regen
So, 08.12. 7:00 0.2 l/m2 in 12 Std. Regen, Niederschlag
So, 08.12. 1:00 0.0 l/m2 in 6 Std. -
Ortszeit Niederschlagsmenge Niederschlagsart
Mo, 09.12. 21:10 keine Meldung -
Mo, 09.12. 21:00 0.1 l/m2 in 1 Std. Niederschlag
Mo, 09.12. 20:50 keine Meldung -
Mo, 09.12. 20:40 keine Meldung -
Mo, 09.12. 20:30 0.0 l/m2 in 1 Std. -
Mo, 09.12. 20:20 keine Meldung -
Mo, 09.12. 20:00 0.0 l/m2 in 1 Std. -
Mo, 09.12. 19:30 0.0 l/m2 in 1 Std. -
Mo, 09.12. 19:00 0.1 l/m2 in 1 Std. Regen
Mo, 09.12. 18:30 0.0 l/m2 in 1 Std. -
Mo, 09.12. 18:00 0.0 l/m2 in 1 Std. -
Ortszeit Stärke Spitze Richtung
km/h Bft. km/h Grad Sektor
Mo, 09.12. 19:00 58 7 79 330° NW
Mo, 09.12. 13:00 13 3 57 260° W
Mo, 09.12. 7:00 28 4 50 210° SW
Mo, 09.12. 1:00 25 4 68 220° SW
So, 08.12. 19:00 29 5 54 220° SW
So, 08.12. 13:00 30 5 70 230° SW
So, 08.12. 7:00 37 5 72 210° SW
So, 08.12. 1:00 22 4 43 200° S
Ortszeit Stärke Spitze Richtung
km/h Bft. km/h Grad Sektor
Mo, 09.12. 21:10 52 7 - 310° NW
Mo, 09.12. 21:00 63 8 76 320° NW
Mo, 09.12. 20:50 63 8 - 320° NW
Mo, 09.12. 20:40 54 7 - 320° NW
Mo, 09.12. 20:30 58 7 76 330° NW
Mo, 09.12. 20:20 58 7 - 330° NW
Mo, 09.12. 20:00 58 7 83 330° NW
Mo, 09.12. 19:30 57 7 81 320° NW
Mo, 09.12. 19:00 58 7 76 330° NW
Mo, 09.12. 18:30 50 6 76 340° N
Mo, 09.12. 18:00 56 7 72 330° NW
Ortszeit Untergrenze Bedeckung Gattung
total tief tief mittel hoch
Mo, 09.12. 19:00 1500 m 1/8 1/8 - - -
Mo, 09.12. 13:00 570 m 8/8 8/8 - - -
Mo, 09.12. 7:00 450 m 7/8 7/8 - - -
Mo, 09.12. 1:00 990 m 2/8 1/8 - - -
So, 08.12. 19:00 870 m 5/8 1/8 - - -
So, 08.12. 13:00 660 m 7/8 7/8 - - -
So, 08.12. 7:00 570 m 8/8 8/8 - - -
So, 08.12. 1:00 750 m 8/8 6/8 - - -
Ortszeit Bedeckungsgrad in Achtel und Wolkenuntergrenze
Mo, 09.12. 21:10 1(960m) 3(2100m) 5(2400m)
Mo, 09.12. 21:00 1(840m) 3(1020m) 5(2400m)
Mo, 09.12. 20:50 1(840m) 3(1020m) 4(1500m)
Mo, 09.12. 20:40 1(1110m)
Mo, 09.12. 20:30 keine Wolken
Mo, 09.12. 20:20 keine Wolken
Mo, 09.12. 20:00 1(930m) 3(1170m)
Mo, 09.12. 19:30 2(1500m) 4(1800m) 5(2700m)
Mo, 09.12. 19:00 1(1500m)
Mo, 09.12. 18:30 1(900m) 3(1500m) 3(1800m)
Mo, 09.12. 18:00 1(900m) 3(1020m) 4(1260m)
Ortszeit Luftdruck NN (hPa) Tendenz (hPa in 3 Std.)
Mo, 09.12. 19:00 1007 + 5,8
Mo, 09.12. 13:00 996 + 2,9
Mo, 09.12. 7:00 991 + 0,2
Mo, 09.12. 1:00 991 - 0,2
So, 08.12. 19:00 993 - 0,8
So, 08.12. 13:00 993 - 0,8
So, 08.12. 7:00 996 - 4,5
So, 08.12. 1:00 1005 - 3,3
Ortszeit Luftdruck NN (hPa) Tendenz (hPa in 3 Std.)
Mo, 09.12. 21:10 1011 keine Meldung
Mo, 09.12. 21:00 1011 + 5,2
Mo, 09.12. 20:50 1011 keine Meldung
Mo, 09.12. 20:40 1010 keine Meldung
Mo, 09.12. 20:30 1010 + 5,3
Mo, 09.12. 20:20 1010 keine Meldung
Mo, 09.12. 20:00 1009 + 5,7
Mo, 09.12. 19:30 1008 + 5,8
Mo, 09.12. 19:00 1007 + 5,8
Mo, 09.12. 18:30 1006 + 6,5
Mo, 09.12. 18:00 1005 + 6,6
Ortszeit Schneehöhe (cm)
Mo, 09.12. 19:00 0
Mo, 09.12. 13:00 0
Mo, 09.12. 7:00 0
Mo, 09.12. 1:00 0
So, 08.12. 19:00 0
So, 08.12. 13:00 0
So, 08.12. 7:00 0
So, 08.12. 1:00 0
Ortszeit Schneehöhe (cm)
Mo, 09.12. 21:10 0
Mo, 09.12. 21:00 0
Mo, 09.12. 20:50 0
Mo, 09.12. 20:40 0
Mo, 09.12. 20:30 0
Mo, 09.12. 20:20 0
Mo, 09.12. 20:00 0
Mo, 09.12. 19:30 0
Mo, 09.12. 19:00 0
Mo, 09.12. 18:30 0
Mo, 09.12. 18:00 0
Link zu dieser Seite / Seite empfehlen

Das Wetter in ...